createdAt,value
2018-05-29T00:01:28.422Z,98824.75
2018-05-29T00:03:55.927Z,98818.90
2018-05-29T00:06:23.431Z,98820.55
2018-05-29T00:08:50.902Z,98818.78
2018-05-29T00:11:19.282Z,98823.14
2018-05-29T00:13:46.747Z,98829.01
2018-05-29T00:16:14.340Z,98825.61
2018-05-29T00:18:41.824Z,98826.54
2018-05-29T00:21:09.351Z,98818.48
2018-05-29T00:23:36.906Z,98813.73
2018-05-29T00:26:04.399Z,98815.09
2018-05-29T00:28:32.131Z,98810.87
2018-05-29T00:30:59.779Z,98810.11
2018-05-29T00:33:27.343Z,98807.89
2018-05-29T00:35:54.837Z,98808.36
2018-05-29T00:38:26.623Z,98800.69
2018-05-29T00:40:54.219Z,98797.75
2018-05-29T00:43:21.779Z,98793.28
2018-05-29T00:45:49.334Z,98792.59
2018-05-29T00:48:16.891Z,98778.34
2018-05-29T00:50:44.459Z,98782.44
2018-05-29T00:53:11.930Z,98776.80
2018-05-29T00:55:39.420Z,98774.48
2018-05-29T00:58:06.926Z,98773.19
2018-05-29T01:00:34.429Z,98767.55
2018-05-29T01:03:01.944Z,98764.20
2018-05-29T01:05:29.498Z,98766.11
2018-05-29T01:07:57.054Z,98768.48
2018-05-29T01:10:24.539Z,98764.86
2018-05-29T01:12:52.015Z,98758.55
2018-05-29T01:15:19.503Z,98757.28
2018-05-29T01:17:46.972Z,98755.30
2018-05-29T01:20:14.459Z,98756.77
2018-05-29T01:22:41.932Z,98752.56
2018-05-29T01:25:09.447Z,98755.86
2018-05-29T01:27:36.947Z,98755.38
2018-05-29T01:30:04.487Z,98753.70
2018-05-29T01:32:31.984Z,98754.62
2018-05-29T01:34:59.502Z,98745.59
2018-05-29T01:37:26.994Z,98756.66
2018-05-29T01:39:54.502Z,98746.98
2018-05-29T01:42:22.052Z,98744.70
2018-05-29T01:44:49.520Z,98743.89
2018-05-29T01:47:17.564Z,98744.92
2018-05-29T01:49:45.035Z,98746.06
2018-05-29T01:52:12.594Z,98746.64
2018-05-29T01:54:40.269Z,98744.05
2018-05-29T01:57:07.811Z,98746.17
2018-05-29T01:59:35.366Z,98738.52
2018-05-29T02:02:02.922Z,98739.66
2018-05-29T02:04:30.468Z,98738.73
2018-05-29T02:06:57.949Z,98737.80
2018-05-29T02:09:25.503Z,98735.42
2018-05-29T02:11:53.064Z,98735.64
2018-05-29T02:14:20.554Z,98733.41
2018-05-29T02:16:48.076Z,98737.75
2018-05-29T02:19:16.363Z,98734.15
2018-05-29T02:21:43.861Z,98734.09
2018-05-29T02:24:11.733Z,98734.13
2018-05-29T02:26:39.222Z,98738.98
2018-05-29T02:29:06.695Z,98739.57
2018-05-29T02:31:34.198Z,98734.23
2018-05-29T02:34:01.666Z,98730.27
2018-05-29T02:36:29.168Z,98732.86
2018-05-29T02:38:57.381Z,98722.02
2018-05-29T02:41:25.087Z,98723.39
2018-05-29T02:43:52.569Z,98721.27
2018-05-29T02:46:20.114Z,98722.53
2018-05-29T02:48:47.664Z,98728.56
2018-05-29T02:51:15.157Z,98726.97
2018-05-29T02:53:42.651Z,98733.84
2018-05-29T02:56:10.133Z,98732.59
2018-05-29T02:58:37.610Z,98732.75
2018-05-29T03:01:05.094Z,98741.16
2018-05-29T03:03:32.599Z,98737.91
2018-05-29T03:06:00.072Z,98749.09
2018-05-29T03:08:27.623Z,98739.09
2018-05-29T03:10:55.463Z,98744.20
2018-05-29T03:13:22.960Z,98736.10
2018-05-29T03:15:50.448Z,98741.75
2018-05-29T03:18:17.943Z,98742.83
2018-05-29T03:20:45.419Z,98741.25
2018-05-29T03:23:12.914Z,98743.15
2018-05-29T03:25:40.421Z,98744.67
2018-05-29T03:28:07.913Z,98747.98
2018-05-29T03:30:35.764Z,98740.66
2018-05-29T03:33:03.254Z,98747.98
2018-05-29T03:35:30.792Z,98749.16
2018-05-29T03:37:58.298Z,98755.68
2018-05-29T03:40:25.880Z,98738.70
2018-05-29T03:42:53.370Z,98741.91
2018-05-29T03:45:20.850Z,98744.39
2018-05-29T03:47:48.406Z,98749.52
2018-05-29T03:50:15.870Z,98747.99
2018-05-29T03:52:43.473Z,98745.79
2018-05-29T03:55:10.943Z,98746.64
2018-05-29T03:57:38.503Z,98746.88
2018-05-29T04:00:06.040Z,98744.78
2018-05-29T04:02:33.615Z,98742.67
2018-05-29T04:05:01.094Z,98741.23
2018-05-29T04:07:28.619Z,98745.50
2018-05-29T04:09:56.099Z,98741.03
2018-05-29T04:12:23.624Z,98738.80
2018-05-29T04:14:51.721Z,98735.20
2018-05-29T04:17:19.214Z,98731.79
2018-05-29T04:19:46.750Z,98727.65
2018-05-29T04:22:14.270Z,98724.28
2018-05-29T04:24:41.823Z,98726.88
2018-05-29T04:27:09.403Z,98719.74
2018-05-29T04:29:36.873Z,98723.00
2018-05-29T04:32:04.362Z,98723.01
2018-05-29T04:34:31.874Z,98717.64
2018-05-29T04:36:59.486Z,98713.51
2018-05-29T04:39:26.969Z,98715.94
2018-05-29T04:41:54.538Z,98711.28
2018-05-29T04:44:22.030Z,98714.23
2018-05-29T04:46:50.129Z,98708.70
2018-05-29T04:49:17.638Z,98718.77
2018-05-29T04:51:45.426Z,98716.06
2018-05-29T04:54:12.907Z,98710.41
2018-05-29T04:56:40.414Z,98706.64
2018-05-29T04:59:07.891Z,98701.58
2018-05-29T05:01:35.364Z,98707.99
2018-05-29T05:04:02.854Z,98710.95
2018-05-29T05:09:15.693Z,98706.77
2018-05-29T05:11:43.163Z,98711.67
2018-05-29T05:14:10.687Z,98704.70
2018-05-29T05:16:38.268Z,98702.59
2018-05-29T05:19:05.766Z,98708.15
2018-05-29T05:21:38.170Z,98703.16
2018-05-29T05:24:08.520Z,98698.73
2018-05-29T05:26:42.207Z,98699.72
2018-05-29T05:29:18.834Z,98704.63
2018-05-29T05:31:46.307Z,98697.89
2018-05-29T05:34:13.858Z,98687.07
2018-05-29T05:36:41.727Z,98684.98
2018-05-29T05:39:09.246Z,98685.22
2018-05-29T05:41:37.145Z,98690.64
2018-05-29T05:44:04.730Z,98688.37
2018-05-29T05:46:32.310Z,98688.89
2018-05-29T05:48:59.806Z,98687.63
2018-05-29T05:51:27.275Z,98686.52
2018-05-29T05:53:54.779Z,98678.78
2018-05-29T05:56:22.251Z,98669.99
2018-05-29T05:58:49.743Z,98676.77
2018-05-29T06:01:17.249Z,98677.52
2018-05-29T06:03:44.890Z,98676.23
2018-05-29T06:06:12.471Z,98678.09
2018-05-29T06:08:39.967Z,98676.13
2018-05-29T06:11:07.447Z,98676.42
2018-05-29T06:13:35.187Z,98669.71
2018-05-29T06:16:02.857Z,98672.23
2018-05-29T06:18:30.359Z,98677.98
2018-05-29T06:20:57.836Z,98677.98
2018-05-29T06:23:25.332Z,98685.88
2018-05-29T06:25:52.807Z,98682.67
2018-05-29T06:28:20.355Z,98683.39
2018-05-29T06:30:47.831Z,98684.63
2018-05-29T06:33:15.411Z,98678.69
2018-05-29T06:35:42.891Z,98679.61
2018-05-29T06:38:10.420Z,98672.98
2018-05-29T06:40:37.987Z,98672.58
2018-05-29T06:43:05.540Z,98667.91
2018-05-29T06:45:33.212Z,98669.15
2018-05-29T06:48:00.694Z,98669.55
2018-05-29T06:50:28.186Z,98668.30
2018-05-29T06:52:55.650Z,98677.02
2018-05-29T06:55:23.151Z,98680.14
2018-05-29T06:57:50.656Z,98675.98
2018-05-29T07:00:18.144Z,98668.34
2018-05-29T07:02:45.620Z,98659.98
2018-05-29T07:05:13.155Z,98665.29
2018-05-29T07:07:40.713Z,98658.06
2018-05-29T07:10:08.236Z,98663.00
2018-05-29T07:12:35.706Z,98657.13
2018-05-29T07:15:03.195Z,98653.16
2018-05-29T07:17:30.747Z,98656.80
2018-05-29T07:19:58.315Z,98656.42
2018-05-29T07:22:25.746Z,98654.14
2018-05-29T07:24:53.315Z,98654.75
2018-05-29T07:27:20.875Z,98648.88
2018-05-29T07:29:48.370Z,98650.27
2018-05-29T07:32:15.882Z,98648.84
2018-05-29T07:34:43.449Z,98646.14
2018-05-29T07:37:10.944Z,98644.87
2018-05-29T07:39:38.476Z,98645.62
2018-05-29T07:42:05.943Z,98643.43
2018-05-29T07:44:33.435Z,98636.62
2018-05-29T07:47:00.928Z,98623.50
2018-05-29T07:49:30.043Z,98624.13
2018-05-29T07:51:57.584Z,98623.76
2018-05-29T07:54:25.138Z,98625.67
2018-05-29T07:56:53.687Z,98623.42
2018-05-29T07:59:21.312Z,98619.73
2018-05-29T08:01:48.855Z,98623.77
2018-05-29T08:04:16.348Z,98617.30
2018-05-29T08:06:43.853Z,98606.81
2018-05-29T08:09:11.410Z,98605.34
2018-05-29T08:11:38.970Z,98606.22
2018-05-29T08:14:06.533Z,98608.54
2018-05-29T08:16:34.007Z,98611.30
2018-05-29T08:19:01.543Z,98616.03
2018-05-29T08:21:29.106Z,98610.00
2018-05-29T08:23:56.599Z,98609.52
2018-05-29T08:26:24.110Z,98605.08
2018-05-29T08:28:51.581Z,98606.14
2018-05-29T08:31:19.079Z,98604.45
2018-05-29T08:33:46.553Z,98606.41
2018-05-29T08:36:14.147Z,98601.06
2018-05-29T08:38:41.623Z,98596.84
2018-05-29T08:41:09.138Z,98602.02
2018-05-29T08:43:36.720Z,98593.82
2018-05-29T08:46:04.261Z,98598.53
2018-05-29T08:48:31.695Z,98589.86
2018-05-29T08:50:59.287Z,98591.97
2018-05-29T08:53:26.857Z,98589.95
2018-05-29T08:55:54.403Z,98589.38
2018-05-29T08:58:21.876Z,98588.22
2018-05-29T09:00:49.426Z,98579.47
2018-05-29T09:03:16.898Z,98585.16
2018-05-29T09:05:44.437Z,98585.56
2018-05-29T09:08:11.998Z,98576.73
2018-05-29T09:10:39.513Z,98575.34
2018-05-29T09:13:06.984Z,98584.36
2018-05-29T09:15:34.785Z,98573.62
2018-05-29T09:18:02.435Z,98570.86
2018-05-29T09:20:29.930Z,98568.62
2018-05-29T09:22:57.395Z,98566.25
2018-05-29T09:25:24.883Z,98568.52
2018-05-29T09:27:52.521Z,98567.50
2018-05-29T09:30:20.015Z,98565.77
2018-05-29T09:32:47.502Z,98564.14
2018-05-29T09:35:15.035Z,98572.66
2018-05-29T09:37:42.736Z,98565.30
2018-05-29T09:40:10.355Z,98569.48
2018-05-29T09:42:37.877Z,98569.13
2018-05-29T09:45:05.503Z,98571.11
2018-05-29T09:47:32.985Z,98566.55
2018-05-29T09:50:00.475Z,98567.27
2018-05-29T09:52:27.955Z,98569.88
2018-05-29T09:54:55.448Z,98567.23
2018-05-29T09:57:23.067Z,98567.02
2018-05-29T09:59:50.645Z,98562.64
2018-05-29T10:02:18.208Z,98556.73
2018-05-29T10:04:45.768Z,98552.06
2018-05-29T10:07:13.311Z,98550.81
2018-05-29T10:09:40.779Z,98541.72
2018-05-29T10:12:08.288Z,98542.95
2018-05-29T10:14:35.774Z,98539.95
2018-05-29T10:17:03.325Z,98538.27
2018-05-29T10:19:30.799Z,98533.80
2018-05-29T10:21:58.282Z,98533.73
2018-05-29T10:24:25.823Z,98526.36
2018-05-29T10:26:53.356Z,98522.40
2018-05-29T10:29:20.830Z,98525.27
2018-05-29T10:31:48.347Z,98515.48
2018-05-29T10:34:15.833Z,98520.78
2018-05-29T10:36:43.335Z,98515.75
2018-05-29T10:39:10.827Z,98511.28
2018-05-29T10:41:38.318Z,98506.28
2018-05-29T10:44:05.786Z,98505.14
2018-05-29T10:46:33.276Z,98505.95
2018-05-29T10:49:00.755Z,98503.69
2018-05-29T10:51:28.296Z,98504.16
2018-05-29T10:53:55.767Z,98506.47
2018-05-29T10:56:23.278Z,98498.20
2018-05-29T10:58:50.751Z,98500.02
2018-05-29T11:01:18.239Z,98503.16
2018-05-29T11:03:45.716Z,98498.41
2018-05-29T11:06:13.232Z,98494.36
2018-05-29T11:08:40.695Z,98490.22
2018-05-29T11:11:08.188Z,98490.70
2018-05-29T11:13:35.727Z,98485.72
2018-05-29T11:16:03.467Z,98485.21
2018-05-29T11:18:30.942Z,98478.81
2018-05-29T11:20:58.511Z,98483.09
2018-05-29T11:23:26.053Z,98480.56
2018-05-29T11:25:53.726Z,98474.84
2018-05-29T11:28:21.198Z,98477.53
2018-05-29T11:30:48.690Z,98478.75
2018-05-29T11:33:16.167Z,98482.28
2018-05-29T11:35:43.655Z,98479.83
2018-05-29T11:38:11.124Z,98469.32
2018-05-29T11:40:38.623Z,98464.36
2018-05-29T11:43:06.099Z,98465.70
2018-05-29T11:45:33.571Z,98464.53
2018-05-29T11:48:01.068Z,98464.55
2018-05-29T11:50:28.545Z,98468.69
2018-05-29T11:52:56.059Z,98467.25
2018-05-29T11:55:23.637Z,98459.22
2018-05-29T11:57:51.138Z,98454.36
2018-05-29T12:00:18.610Z,98458.22
2018-05-29T12:02:46.118Z,98455.80
2018-05-29T12:05:13.593Z,98451.41
2018-05-29T12:07:41.125Z,98450.30
2018-05-29T12:10:08.588Z,98441.48
2018-05-29T12:12:36.225Z,98438.46
2018-05-29T12:15:03.752Z,98442.05
2018-05-29T12:17:31.245Z,98441.25
2018-05-29T12:19:58.751Z,98446.30
2018-05-29T12:22:26.306Z,98440.70
2018-05-29T12:24:53.746Z,98441.11
2018-05-29T12:27:21.245Z,98438.36
2018-05-29T12:29:48.723Z,98446.95
2018-05-29T12:32:16.227Z,98436.08
2018-05-29T12:34:43.695Z,98437.02
2018-05-29T12:37:11.188Z,98432.99
2018-05-29T12:39:38.655Z,98431.95
2018-05-29T12:42:06.159Z,98427.43
2018-05-29T12:44:33.638Z,98428.80
2018-05-29T12:47:01.147Z,98430.98
2018-05-29T12:49:28.620Z,98438.57
2018-05-29T12:51:56.177Z,98438.44
2018-05-29T12:54:23.661Z,98437.29
2018-05-29T12:56:51.158Z,98438.97
2018-05-29T12:59:18.659Z,98434.40
2018-05-29T13:01:46.285Z,98435.95
2018-05-29T13:04:13.765Z,98434.02
2018-05-29T13:06:41.356Z,98437.63
2018-05-29T13:09:08.904Z,98432.67
2018-05-29T13:11:36.463Z,98428.78
2018-05-29T13:14:04.010Z,98431.28
2018-05-29T13:16:31.617Z,98434.18
2018-05-29T13:18:59.107Z,98422.17
2018-05-29T13:21:26.604Z,98423.84
2018-05-29T13:23:54.094Z,98420.97
2018-05-29T13:26:21.563Z,98407.16
2018-05-29T13:28:49.064Z,98399.03
2018-05-29T13:31:16.552Z,98396.02
2018-05-29T13:33:44.120Z,98389.91
2018-05-29T13:36:11.621Z,98380.27
2018-05-29T13:38:39.119Z,98387.59
2018-05-29T13:41:06.652Z,98392.29
2018-05-29T13:43:34.175Z,98391.75
2018-05-29T13:46:01.718Z,98388.18
2018-05-29T13:48:29.253Z,98385.14
2018-05-29T13:50:56.843Z,98387.48
2018-05-29T13:53:24.354Z,98387.30
2018-05-29T13:55:51.859Z,98392.94
2018-05-29T13:58:19.374Z,98390.20
2018-05-29T14:00:46.847Z,98385.09
2018-05-29T14:03:14.360Z,98386.36
2018-05-29T14:05:41.832Z,98379.27
2018-05-29T14:08:09.320Z,98372.38
2018-05-29T14:10:36.806Z,98374.31
2018-05-29T14:13:04.295Z,98369.09
2018-05-29T14:15:31.767Z,98369.80
2018-05-29T14:17:59.280Z,98357.94
2018-05-29T14:20:26.759Z,98356.26
2018-05-29T14:22:55.096Z,98350.13
2018-05-29T14:25:22.580Z,98348.28
2018-05-29T14:27:50.103Z,98348.67
2018-05-29T14:30:17.579Z,98342.50
2018-05-29T14:32:45.676Z,98337.27
2018-05-29T14:35:13.143Z,98335.62
2018-05-29T14:37:40.651Z,98341.86
2018-05-29T14:40:08.122Z,98338.29
2018-05-29T14:42:35.619Z,98338.78
2018-05-29T14:45:03.105Z,98342.55
2018-05-29T14:47:30.599Z,98341.54
2018-05-29T14:49:58.090Z,98344.84
2018-05-29T14:52:25.618Z,98342.15
2018-05-29T14:54:53.076Z,98335.17
2018-05-29T14:57:20.588Z,98333.06
2018-05-29T14:59:48.058Z,98321.25
2018-05-29T15:02:15.536Z,98325.04
2018-05-29T15:04:43.029Z,98317.30
2018-05-29T15:07:10.504Z,98306.67
2018-05-29T15:09:38.003Z,98297.59
2018-05-29T15:12:05.474Z,98289.31
2018-05-29T15:14:32.972Z,98283.58
2018-05-29T15:17:00.444Z,98277.94
2018-05-29T15:19:27.943Z,98275.33
2018-05-29T15:21:55.412Z,98268.59
2018-05-29T15:24:22.905Z,98271.06
2018-05-29T15:26:50.435Z,98274.73
2018-05-29T15:29:17.938Z,98281.62
2018-05-29T15:31:45.408Z,98283.81
2018-05-29T15:34:12.901Z,98286.42
2018-05-29T15:36:40.374Z,98294.34
2018-05-29T15:39:07.867Z,98300.80
2018-05-29T15:41:35.344Z,98303.45
2018-05-29T15:44:02.851Z,98308.22
2018-05-29T15:46:30.325Z,98312.81
2018-05-29T15:48:57.888Z,98306.08
2018-05-29T15:51:25.365Z,98309.66
2018-05-29T15:53:52.868Z,98314.59
2018-05-29T15:56:20.343Z,98315.36
2018-05-29T15:58:47.836Z,98313.59
2018-05-29T16:01:15.310Z,98324.58
2018-05-29T16:03:42.804Z,98321.97
2018-05-29T16:06:10.271Z,98315.10
2018-05-29T16:08:37.764Z,98316.87
2018-05-29T16:11:05.235Z,98316.61
2018-05-29T16:13:32.730Z,98316.00
2018-05-29T16:16:00.204Z,98315.13
2018-05-29T16:18:27.706Z,98322.26
2018-05-29T16:20:55.176Z,98331.73
2018-05-29T16:23:22.675Z,98332.56
2018-05-29T16:25:50.159Z,98330.91
2018-05-29T16:28:23.643Z,98333.70
2018-05-29T16:30:51.136Z,98337.27
2018-05-29T16:33:18.711Z,98336.64
2018-05-29T16:35:46.193Z,98335.95
2018-05-29T16:38:13.700Z,98334.54
2018-05-29T16:40:41.373Z,98341.32
2018-05-29T16:43:08.912Z,98341.91
2018-05-29T16:45:36.705Z,98334.36
2018-05-29T16:48:04.561Z,98331.02
2018-05-29T16:50:32.068Z,98318.04
2018-05-29T16:52:59.548Z,98315.97
2018-05-29T16:55:27.055Z,98316.00
2018-05-29T16:57:54.531Z,98314.25
2018-05-29T17:00:22.028Z,98314.56
2018-05-29T17:02:49.494Z,98308.36
2018-05-29T17:05:17.009Z,98314.12
2018-05-29T17:07:44.489Z,98303.94
2018-05-29T17:10:11.987Z,98310.61
2018-05-29T17:12:39.583Z,98315.98
2018-05-29T17:15:07.204Z,98314.14
2018-05-29T17:17:34.625Z,98324.06
2018-05-29T17:20:02.130Z,98320.47
2018-05-29T17:22:29.605Z,98331.31
2018-05-29T17:24:57.389Z,98330.54
2018-05-29T17:27:24.873Z,98332.99
2018-05-29T17:29:52.389Z,98328.67
2018-05-29T17:32:20.011Z,98339.61
2018-05-29T17:34:47.507Z,98338.43
2018-05-29T17:37:14.973Z,98340.58
2018-05-29T17:39:42.465Z,98345.06
2018-05-29T17:42:09.930Z,98347.70
2018-05-29T17:44:37.419Z,98348.41
2018-05-29T17:47:04.890Z,98344.06
2018-05-29T17:49:32.384Z,98353.45
2018-05-29T17:51:59.874Z,98347.91
2018-05-29T17:54:27.366Z,98347.75
2018-05-29T17:56:54.840Z,98345.84
2018-05-29T17:59:22.367Z,98340.03
2018-05-29T18:01:49.898Z,98339.33
2018-05-29T18:04:17.395Z,98335.77
2018-05-29T18:06:44.942Z,98335.59
2018-05-29T18:09:12.494Z,98329.72
2018-05-29T18:11:39.976Z,98322.89
2018-05-29T18:14:07.521Z,98318.70
2018-05-29T18:16:34.955Z,98317.42
2018-05-29T18:19:05.300Z,98310.80
2018-05-29T18:21:33.255Z,98312.29
2018-05-29T18:24:00.955Z,98308.66
2018-05-29T18:26:28.479Z,98306.64
2018-05-29T18:28:56.040Z,98306.70
2018-05-29T18:31:23.535Z,98305.91
2018-05-29T18:33:51.149Z,98303.54
2018-05-29T18:36:18.661Z,98303.52
2018-05-29T18:38:46.155Z,98309.85
2018-05-29T18:41:13.714Z,98296.27
2018-05-29T18:43:42.094Z,98298.98
2018-05-29T18:46:09.635Z,98292.13
2018-05-29T18:48:37.296Z,98302.47
2018-05-29T18:51:04.810Z,98297.95
2018-05-29T18:53:32.310Z,98298.77
2018-05-29T18:55:59.849Z,98301.61
2018-05-29T18:58:27.393Z,98305.94
2018-05-29T19:00:54.939Z,98314.13
2018-05-29T19:03:22.460Z,98315.89
2018-05-29T19:05:50.169Z,98315.72
2018-05-29T19:08:17.730Z,98311.45
2018-05-29T19:10:45.246Z,98308.64
2018-05-29T19:13:12.859Z,98310.38
2018-05-29T19:15:40.613Z,98319.73
2018-05-29T19:18:08.354Z,98359.30
2018-05-29T19:20:36.239Z,98378.08
2018-05-29T19:23:03.909Z,98405.03
2018-05-29T19:25:31.378Z,98430.77
2018-05-29T19:27:58.967Z,98418.50
2018-05-29T19:30:26.509Z,98387.28
2018-05-29T19:32:54.211Z,98373.41
2018-05-29T19:35:22.144Z,98367.06
2018-05-29T19:37:49.659Z,98391.28
2018-05-29T19:40:17.566Z,98409.96
2018-05-29T19:42:45.188Z,98425.18
2018-05-29T19:45:12.754Z,98444.15
2018-05-29T19:47:40.289Z,98437.14
2018-05-29T19:50:07.922Z,98423.63
2018-05-29T19:52:35.492Z,98420.35
2018-05-29T19:55:03.025Z,98406.69
2018-05-29T19:57:31.355Z,98423.58
2018-05-29T19:59:59.120Z,98433.14
2018-05-29T20:02:26.652Z,98437.52
2018-05-29T20:04:54.170Z,98445.47
2018-05-29T20:07:21.799Z,98439.14
2018-05-29T20:09:49.379Z,98441.16
2018-05-29T20:12:17.027Z,98437.58
2018-05-29T20:14:44.638Z,98449.64
2018-05-29T20:17:12.193Z,98456.83
2018-05-29T20:19:39.764Z,98449.08
2018-05-29T20:22:07.472Z,98450.47
2018-05-29T20:24:35.129Z,98465.21
2018-05-29T20:27:02.775Z,98457.19
2018-05-29T20:29:30.638Z,98457.50
2018-05-29T20:31:58.134Z,98457.53
2018-05-29T20:34:25.636Z,98465.00
2018-05-29T20:36:53.284Z,98484.28
2018-05-29T20:39:20.896Z,98518.47
2018-05-29T20:41:48.489Z,98518.33
2018-05-29T20:44:16.191Z,98528.99
2018-05-29T20:46:43.744Z,98560.67
2018-05-29T20:49:12.038Z,98565.08
2018-05-29T20:51:39.670Z,98560.64
2018-05-29T20:54:07.180Z,98553.02
2018-05-29T20:56:34.703Z,98538.09
2018-05-29T20:59:03.508Z,98515.19
2018-05-29T21:01:31.983Z,98514.72
2018-05-29T21:03:59.491Z,98520.27
2018-05-29T21:06:26.979Z,98511.57
2018-05-29T21:08:55.560Z,98510.33
2018-05-29T21:11:23.066Z,98505.77
2018-05-29T21:13:50.653Z,98514.58
2018-05-29T21:16:18.176Z,98528.75
2018-05-29T21:18:45.779Z,98538.95
2018-05-29T21:21:13.327Z,98564.53
2018-05-29T21:23:41.280Z,98593.60
2018-05-29T21:26:08.842Z,98604.34
2018-05-29T21:28:36.330Z,98612.60
2018-05-29T21:31:03.818Z,98603.72
2018-05-29T21:33:31.296Z,98607.63
2018-05-29T21:35:58.791Z,98612.32
2018-05-29T21:38:26.275Z,98615.39
2018-05-29T21:40:53.834Z,98613.70
2018-05-29T21:43:21.351Z,98611.08
2018-05-29T21:45:48.890Z,98614.52
2018-05-29T21:48:16.462Z,98604.67
2018-05-29T21:50:43.941Z,98597.19
2018-05-29T21:53:11.570Z,98579.61
2018-05-29T21:55:39.042Z,98576.36
2018-05-29T21:58:06.803Z,98575.87
2018-05-29T22:00:34.274Z,98570.37
2018-05-29T22:03:01.763Z,98559.67
2018-05-29T22:05:29.234Z,98550.61
2018-05-29T22:07:56.723Z,98553.14
2018-05-29T22:10:24.194Z,98560.61
2018-05-29T22:12:51.691Z,98569.55
2018-05-29T22:15:19.171Z,98568.37
2018-05-29T22:17:46.662Z,98560.34
2018-05-29T22:20:14.132Z,98564.88
2018-05-29T22:22:41.633Z,98578.08
2018-05-29T22:25:09.106Z,98586.87
2018-05-29T22:27:36.743Z,98582.93
2018-05-29T22:30:04.210Z,98580.38
2018-05-29T22:32:31.695Z,98579.22
2018-05-29T22:34:59.261Z,98574.95
2018-05-29T22:37:26.751Z,98582.13
2018-05-29T22:39:54.235Z,98595.23
2018-05-29T22:42:29.937Z,98574.84
2018-05-29T22:44:57.410Z,98547.53
2018-05-29T22:47:24.900Z,98528.41
2018-05-29T22:49:52.378Z,98511.59
2018-05-29T22:52:19.866Z,98494.67
2018-05-29T22:54:47.335Z,98491.98
2018-05-29T22:57:14.825Z,98481.45
2018-05-29T22:59:42.299Z,98471.17
2018-05-29T23:02:09.870Z,98457.30
2018-05-29T23:04:37.343Z,98444.56
2018-05-29T23:07:04.892Z,98447.09
2018-05-29T23:09:32.354Z,98432.73
2018-05-29T23:11:59.850Z,98431.41
2018-05-29T23:14:27.355Z,98435.23
2018-05-29T23:16:54.838Z,98423.47
2018-05-29T23:19:22.306Z,98410.77
2018-05-29T23:21:49.831Z,98397.48
2018-05-29T23:24:17.387Z,98390.34
2018-05-29T23:26:44.869Z,98392.16
2018-05-29T23:29:12.355Z,98393.22
2018-05-29T23:31:39.819Z,98392.22
2018-05-29T23:34:07.635Z,98413.98
2018-05-29T23:36:35.178Z,98442.65
2018-05-29T23:39:02.668Z,98471.70
2018-05-29T23:41:30.139Z,98486.58
2018-05-29T23:43:57.665Z,98502.17
2018-05-29T23:46:25.206Z,98496.37
2018-05-29T23:48:52.691Z,98490.45
2018-05-29T23:51:20.163Z,98496.48
2018-05-29T23:53:47.659Z,98491.58
2018-05-29T23:56:15.132Z,98495.14
2018-05-29T23:58:42.691Z,98501.80
